KGEV

Ashe County Airport

Jefferson, North Carolina, USA
METAR KGEV 230825Z AUTO 24003KT 10SM SCT002 SCT025 OVC100 16/15 A3013 RMK AO2 T01600150
Observed Flight Rules
May-23 @ 08:25 UTC (25 minutes ago) Visual Flight Rules
Wind Visibility Clouds
240° at 3 knots 10 miles
  • Scattered at 200' AGL
  • Scattered at 2,500' AGL
  • Overcast at 10,000' AGL
Temperatures Readings
Current 16°C / 61°F
Dewpoint 15°C / 59°F
Humidity 94%
Altimeter 30.13" Hg
Pressure 1020 hPa
Elevation 969
METAR KGEV 230825Z AUTO 24003KT 10SM SCT002 SCT025 OVC100 16/15 A3013 RMK AO2 T01600150
Observed Flight Rules
May-23 @ 08:25 UTC
(25 minutes ago)
VFR
Wind Visibility
240° at 3 knots 10 miles
Clouds
  • Scattered at 200' AGL
  • Scattered at 2,500' AGL
  • Overcast at 10,000' AGL
Temperature Dewpoint
16°C / 61°F 15°C / 59°F
Humidity Altimeter Pressure
94% 30.13" Hg 1020 hPa